Time;durP1;ratioP1;P1;durP2;ratioP2;P2;SDS_P1;SDS_P2;PMS_P1;PMS_P2;Temp;Humidity;BMP_temperature;BMP_pressure;BME280_temperature;BME280_humidity;BME280_pressure;Samples;Min_cycle;Max_cycle;Signal;HPM_P1;HPM_P2
2023/03/08 00:02:16;;;;;;;12.95;11.60;;;;;;;;;;5072744;28;20382;-80
2023/03/08 00:04:42;;;;;;;12.67;11.07;;;;;;;;;;5071328;28;20384;-80
2023/03/08 00:07:08;;;;;;;13.40;11.88;;;;;;;;;;5055168;28;20410;-80
2023/03/08 00:09:34;;;;;;;15.47;11.80;;;;;;;;;;5072678;28;20414;-80
2023/03/08 00:12:00;;;;;;;12.90;11.55;;;;;;;;;;5072223;28;20764;-80
2023/03/08 00:14:25;;;;;;;15.85;12.15;;;;;;;;;;5071427;28;20437;-80
2023/03/08 00:16:51;;;;;;;13.15;11.30;;;;;;;;;;5072553;28;20414;-80
2023/03/08 00:19:17;;;;;;;13.73;11.57;;;;;;;;;;5072385;28;20380;-80
2023/03/08 00:21:43;;;;;;;15.10;12.17;;;;;;;;;;5072285;28;20427;-80
2023/03/08 00:24:11;;;;;;;14.20;11.88;;;;;;;;;;5072632;28;20384;-80
2023/03/08 00:26:37;;;;;;;14.38;12.50;;;;;;;;;;5072252;28;20390;-80
2023/03/08 00:29:03;;;;;;;16.83;13.02;;;;;;;;;;5072722;28;20380;-80
2023/03/08 00:31:29;;;;;;;13.65;12.00;;;;;;;;;;5071917;28;20438;-80
2023/03/08 00:33:55;;;;;;;15.90;12.55;;;;;;;;;;5072178;28;20866;-80
2023/03/08 00:36:21;;;;;;;15.07;12.47;;;;;;;;;;5047745;28;20476;-81
2023/03/08 00:38:49;;;;;;;14.55;12.23;;;;;;;;;;5030235;28;20379;-81
2023/03/08 00:41:15;;;;;;;14.43;11.93;;;;;;;;;;5036373;28;20454;-81
2023/03/08 00:43:42;;;;;;;15.20;12.73;;;;;;;;;;5032947;28;20391;-81
2023/03/08 00:46:08;;;;;;;15.52;12.55;;;;;;;;;;5033286;28;20383;-81
2023/03/08 00:48:34;;;;;;;15.95;13.20;;;;;;;;;;5035951;28;20882;-80
2023/03/08 00:51:00;;;;;;;15.77;13.03;;;;;;;;;;5032434;28;20854;-81
2023/03/08 00:53:26;;;;;;;14.23;12.70;;;;;;;;;;5041530;28;20470;-81
2023/03/08 00:55:54;;;;;;;14.90;12.80;;;;;;;;;;5037180;28;20387;-81
2023/03/08 00:58:22;;;;;;;15.18;13.57;;;;;;;;;;5065254;28;20383;-81
2023/03/08 01:00:49;;;;;;;16.08;13.50;;;;;;;;;;5074152;28;20430;-81
2023/03/08 01:03:15;;;;;;;18.77;13.30;;;;;;;;;;5075858;28;20706;-83
2023/03/08 01:05:44;;;;;;;14.95;13.07;;;;;;;;;;5060629;28;20749;-81
2023/03/08 01:08:10;;;;;;;13.98;12.48;;;;;;;;;;5038648;28;20889;-81
2023/03/08 01:10:36;;;;;;;16.35;13.05;;;;;;;;;;5038068;28;20422;-81
2023/03/08 01:13:02;;;;;;;17.07;13.43;;;;;;;;;;5034951;28;20433;-81
2023/03/08 01:15:28;;;;;;;16.33;13.63;;;;;;;;;;5035138;28;20971;-80
2023/03/08 01:17:54;;;;;;;16.40;13.20;;;;;;;;;;5044450;28;20398;-82
2023/03/08 01:20:20;;;;;;;14.70;13.18;;;;;;;;;;5033480;28;20394;-81
2023/03/08 01:22:46;;;;;;;15.07;13.25;;;;;;;;;;5046523;28;20379;-81
2023/03/08 01:25:12;;;;;;;18.67;13.23;;;;;;;;;;5039425;28;21312;-82
2023/03/08 01:27:38;;;;;;;16.33;13.57;;;;;;;;;;5060291;28;20427;-82
2023/03/08 01:30:04;;;;;;;15.45;13.20;;;;;;;;;;5033719;28;20441;-81
2023/03/08 01:32:30;;;;;;;14.75;13.13;;;;;;;;;;5034068;28;20391;-81
2023/03/08 01:35:00;;;;;;;16.35;13.05;;;;;;;;;;5038194;28;20390;-81
2023/03/08 01:37:26;;;;;;;14.95;13.02;;;;;;;;;;5040692;28;20383;-81
2023/03/08 01:39:52;;;;;;;16.67;13.02;;;;;;;;;;5035621;28;20394;-81
2023/03/08 01:42:18;;;;;;;16.10;13.30;;;;;;;;;;5038104;28;20383;-81
2023/03/08 01:45:04;;;;;;;14.50;12.45;;;;;;;;;;5039169;28;20387;-82
2023/03/08 01:47:31;;;;;;;13.52;11.88;;;;;;;;;;5043760;28;20411;-81
2023/03/08 01:49:59;;;;;;;14.25;12.68;;;;;;;;;;5057341;28;20550;-82
2023/03/08 01:52:36;;;;;;;15.68;12.88;;;;;;;;;;5036847;28;20530;-82
2023/03/08 01:55:04;;;;;;;14.57;12.40;;;;;;;;;;5043752;28;20378;-81
2023/03/08 01:57:36;;;;;;;13.45;12.02;;;;;;;;;;5051309;28;20381;-82
2023/03/08 02:00:15;;;;;;;14.97;12.63;;;;;;;;;;5065597;28;20760;-81
2023/03/08 02:02:47;;;;;;;13.43;12.02;;;;;;;;;;5041551;28;20766;-81
2023/03/08 02:05:13;;;;;;;14.15;12.13;;;;;;;;;;5041520;28;20391;-81
2023/03/08 02:07:39;;;;;;;14.73;12.48;;;;;;;;;;5036060;28;20873;-81
2023/03/08 02:10:06;;;;;;;16.70;12.95;;;;;;;;;;5040306;28;20427;-81
2023/03/08 02:12:33;;;;;;;14.60;12.88;;;;;;;;;;5040627;28;20391;-81
2023/03/08 02:14:59;;;;;;;20.02;14.85;;;;;;;;;;5047339;28;20983;-82
2023/03/08 02:17:25;;;;;;;16.83;13.88;;;;;;;;;;5033633;28;20380;-82
2023/03/08 02:19:53;;;;;;;15.52;13.93;;;;;;;;;;5034215;28;20379;-83
2023/03/08 02:22:19;;;;;;;15.07;13.10;;;;;;;;;;5034816;28;20456;-82
2023/03/08 02:24:45;;;;;;;15.07;13.48;;;;;;;;;;5038232;28;20444;-82
2023/03/08 02:27:18;;;;;;;15.63;13.75;;;;;;;;;;5036816;28;20383;-82
2023/03/08 02:29:44;;;;;;;14.32;12.82;;;;;;;;;;5032502;28;20371;-82
2023/03/08 02:32:10;;;;;;;16.02;13.18;;;;;;;;;;5033282;28;20402;-82
2023/03/08 02:34:36;;;;;;;14.68;12.55;;;;;;;;;;5032289;28;20788;-82
2023/03/08 02:37:02;;;;;;;14.60;12.75;;;;;;;;;;5067868;28;20371;-82
2023/03/08 02:39:28;;;;;;;15.68;12.98;;;;;;;;;;5073664;28;20376;-82
2023/03/08 02:41:54;;;;;;;13.32;12.02;;;;;;;;;;5059412;28;20468;-82
2023/03/08 02:44:20;;;;;;;15.43;13.17;;;;;;;;;;5073943;28;20411;-82
2023/03/08 02:46:46;;;;;;;15.70;13.55;;;;;;;;;;5074073;28;20492;-82
2023/03/08 02:49:12;;;;;;;14.15;12.65;;;;;;;;;;5073766;28;20449;-82
2023/03/08 02:51:38;;;;;;;13.95;12.45;;;;;;;;;;5073537;28;20416;-82
2023/03/08 02:54:04;;;;;;;15.73;13.00;;;;;;;;;;5058989;28;20371;-82
2023/03/08 02:56:30;;;;;;;16.17;13.40;;;;;;;;;;5073801;28;20457;-82
2023/03/08 02:58:56;;;;;;;14.15;12.45;;;;;;;;;;5073593;28;20386;-82
2023/03/08 03:01:22;;;;;;;13.55;12.07;;;;;;;;;;5073560;28;20394;-82
2023/03/08 03:03:48;;;;;;;15.05;12.90;;;;;;;;;;5073750;28;20454;-82
2023/03/08 03:06:15;;;;;;;14.45;12.63;;;;;;;;;;5073737;28;20441;-82
2023/03/08 03:08:41;;;;;;;13.60;12.30;;;;;;;;;;5073583;28;20384;-82
2023/03/08 03:11:10;;;;;;;14.43;12.75;;;;;;;;;;5073292;28;20481;-82
2023/03/08 03:13:36;;;;;;;16.27;13.55;;;;;;;;;;5049263;28;20378;-82
2023/03/08 03:16:10;;;;;;;14.32;12.85;;;;;;;;;;5054605;28;20427;-82
2023/03/08 03:18:36;;;;;;;14.18;12.65;;;;;;;;;;5063290;28;20384;-82
2023/03/08 03:21:03;;;;;;;15.25;12.93;;;;;;;;;;5073356;28;20383;-82
2023/03/08 03:23:29;;;;;;;15.10;12.90;;;;;;;;;;5047060;28;20425;-82
2023/03/08 03:25:55;;;;;;;16.60;13.80;;;;;;;;;;5047957;28;20383;-81
2023/03/08 03:28:21;;;;;;;18.00;14.27;;;;;;;;;;5042501;28;20409;-81
2023/03/08 03:30:47;;;;;;;14.93;13.23;;;;;;;;;;5059675;28;20419;-81
2023/03/08 03:33:13;;;;;;;16.60;13.43;;;;;;;;;;5072196;28;20375;-81
2023/03/08 03:35:39;;;;;;;18.65;13.50;;;;;;;;;;5072841;28;20432;-82
2023/03/08 03:38:05;;;;;;;16.20;13.77;;;;;;;;;;5072931;28;20390;-82
2023/03/08 03:40:31;;;;;;;18.17;14.10;;;;;;;;;;5071980;28;20380;-82
2023/03/08 03:42:57;;;;;;;15.57;13.88;;;;;;;;;;5072930;28;20407;-82
2023/03/08 03:45:23;;;;;;;15.07;13.50;;;;;;;;;;5072860;28;20379;-82
2023/03/08 03:47:49;;;;;;;16.27;13.48;;;;;;;;;;5073089;28;20857;-82
2023/03/08 03:50:15;;;;;;;14.93;13.23;;;;;;;;;;5072518;28;20461;-82
2023/03/08 03:52:41;;;;;;;16.75;13.82;;;;;;;;;;5072636;28;20457;-82
2023/03/08 03:55:07;;;;;;;17.05;14.15;;;;;;;;;;5072739;28;20876;-82
2023/03/08 03:57:33;;;;;;;15.20;13.02;;;;;;;;;;5072630;28;20757;-82
2023/03/08 03:59:59;;;;;;;16.95;13.75;;;;;;;;;;5072481;28;20383;-82
2023/03/08 04:02:25;;;;;;;16.55;13.57;;;;;;;;;;5071463;28;20462;-82
2023/03/08 04:04:51;;;;;;;54.75;29.83;;;;;;;;;;5072697;28;20481;-82
2023/03/08 04:07:17;;;;;;;34.67;21.38;;;;;;;;;;5072504;28;20458;-82
2023/03/08 04:09:43;;;;;;;20.77;16.40;;;;;;;;;;5072401;28;20407;-82
2023/03/08 04:12:09;;;;;;;16.55;13.40;;;;;;;;;;5058860;28;20417;-82
2023/03/08 04:14:35;;;;;;;15.82;12.85;;;;;;;;;;5068609;28;20367;-82
2023/03/08 04:17:01;;;;;;;14.98;12.77;;;;;;;;;;5072647;28;20378;-82
2023/03/08 04:19:27;;;;;;;14.83;13.27;;;;;;;;;;5072408;28;20415;-82
2023/03/08 04:21:53;;;;;;;15.85;13.32;;;;;;;;;;5072293;28;20382;-82
2023/03/08 04:24:19;;;;;;;15.75;13.80;;;;;;;;;;5072275;28;20380;-82
2023/03/08 04:26:45;;;;;;;15.63;13.57;;;;;;;;;;5072085;28;20478;-82
2023/03/08 04:29:11;;;;;;;15.93;13.40;;;;;;;;;;5072273;28;20445;-82
2023/03/08 04:31:37;;;;;;;22.05;15.75;;;;;;;;;;5071596;28;20511;-82
2023/03/08 04:34:04;;;;;;;16.65;13.60;;;;;;;;;;5063290;28;20439;-82
2023/03/08 04:36:30;;;;;;;15.93;13.45;;;;;;;;;;5064699;28;20800;-82
2023/03/08 04:38:56;;;;;;;15.93;13.60;;;;;;;;;;5072113;28;20470;-82
2023/03/08 04:41:22;;;;;;;14.85;13.20;;;;;;;;;;5071961;28;20765;-82
2023/03/08 04:43:50;;;;;;;14.65;13.00;;;;;;;;;;5072102;28;20906;-82
2023/03/08 04:46:16;;;;;;;14.02;12.55;;;;;;;;;;5072149;28;20411;-82
2023/03/08 04:48:42;;;;;;;14.90;13.30;;;;;;;;;;5059891;28;20393;-82
2023/03/08 04:51:09;;;;;;;16.73;13.43;;;;;;;;;;5071969;28;20407;-82
2023/03/08 04:53:35;;;;;;;20.83;15.10;;;;;;;;;;5072316;28;20376;-82
2023/03/08 04:56:01;;;;;;;21.67;15.45;;;;;;;;;;5072401;28;20453;-82
2023/03/08 04:58:28;;;;;;;19.63;14.93;;;;;;;;;;5071922;28;20386;-82
2023/03/08 05:00:55;;;;;;;24.45;17.15;;;;;;;;;;5071254;28;20379;-82
2023/03/08 05:03:21;;;;;;;33.00;20.70;;;;;;;;;;5071754;28;20376;-82
2023/03/08 05:05:48;;;;;;;15.82;13.80;;;;;;;;;;5071688;28;20744;-83
2023/03/08 05:08:14;;;;;;;15.60;13.35;;;;;;;;;;5072073;28;20387;-82
2023/03/08 05:10:45;;;;;;;19.80;15.43;;;;;;;;;;5071646;28;20489;-82
2023/03/08 05:13:11;;;;;;;19.20;14.68;;;;;;;;;;5054305;28;20878;-82
2023/03/08 05:15:37;;;;;;;15.18;13.02;;;;;;;;;;5071369;28;20462;-82
2023/03/08 05:18:03;;;;;;;18.25;14.40;;;;;;;;;;5067406;28;20787;-82
2023/03/08 05:20:30;;;;;;;16.07;13.47;;;;;;;;;;5047051;28;20430;-81
2023/03/08 05:22:56;;;;;;;15.55;13.18;;;;;;;;;;5057440;28;20387;-82
2023/03/08 05:25:22;;;;;;;15.80;13.57;;;;;;;;;;5054337;28;20876;-81
2023/03/08 05:27:48;;;;;;;15.05;13.40;;;;;;;;;;5053395;28;20414;-82
2023/03/08 05:30:14;;;;;;;17.37;13.57;;;;;;;;;;5068284;28;20415;-82
2023/03/08 05:32:40;;;;;;;16.73;14.02;;;;;;;;;;5060046;28;20877;-81
2023/03/08 05:35:06;;;;;;;15.43;13.15;;;;;;;;;;5070193;28;20384;-81
2023/03/08 05:37:32;;;;;;;14.98;13.45;;;;;;;;;;5058179;28;20860;-81
2023/03/08 05:39:58;;;;;;;14.27;12.88;;;;;;;;;;5075122;28;20372;-81
2023/03/08 05:42:26;;;;;;;14.35;12.85;;;;;;;;;;5049717;28;20411;-81
2023/03/08 05:44:52;;;;;;;15.20;13.07;;;;;;;;;;5074997;28;20395;-81
2023/03/08 05:47:18;;;;;;;15.07;12.93;;;;;;;;;;5047689;28;20372;-81
2023/03/08 05:49:44;;;;;;;14.93;13.33;;;;;;;;;;5063838;28;20380;-81
2023/03/08 05:52:10;;;;;;;14.77;13.18;;;;;;;;;;5071795;28;20482;-81
2023/03/08 05:54:36;;;;;;;18.83;13.93;;;;;;;;;;5071611;28;20467;-82
2023/03/08 05:57:02;;;;;;;15.60;13.35;;;;;;;;;;5038491;28;20390;-81
2023/03/08 05:59:28;;;;;;;15.00;13.23;;;;;;;;;;5061848;28;20387;-81
2023/03/08 06:01:54;;;;;;;14.48;12.77;;;;;;;;;;5045576;28;20468;-82
2023/03/08 06:04:20;;;;;;;15.25;13.70;;;;;;;;;;5041951;28;20391;-82
2023/03/08 06:06:46;;;;;;;16.67;13.85;;;;;;;;;;5059603;28;20403;-81
2023/03/08 06:09:12;;;;;;;16.77;13.55;;;;;;;;;;5049454;28;20434;-82
2023/03/08 06:11:38;;;;;;;15.50;13.43;;;;;;;;;;5072412;28;20408;-83
2023/03/08 06:14:04;;;;;;;16.03;14.33;;;;;;;;;;5073700;28;20391;-82
2023/03/08 06:16:30;;;;;;;18.95;14.48;;;;;;;;;;5060267;28;20384;-82
2023/03/08 06:18:55;;;;;;;20.77;15.30;;;;;;;;;;5074353;28;20375;-82
2023/03/08 06:21:22;;;;;;;21.20;13.63;;;;;;;;;;5073908;28;20376;-82
2023/03/08 06:23:48;;;;;;;16.27;13.98;;;;;;;;;;5050367;28;20390;-82
2023/03/08 06:26:14;;;;;;;15.73;13.88;;;;;;;;;;5047306;28;20459;-80
2023/03/08 06:28:41;;;;;;;18.00;14.23;;;;;;;;;;5068194;28;20416;-82
2023/03/08 06:31:07;;;;;;;16.23;14.07;;;;;;;;;;5064928;28;20496;-82
2023/03/08 06:33:33;;;;;;;15.55;13.88;;;;;;;;;;5074156;28;20877;-82
2023/03/08 06:36:01;;;;;;;17.48;14.23;;;;;;;;;;5074198;28;20376;-82
2023/03/08 06:38:27;;;;;;;17.40;14.20;;;;;;;;;;5072007;28;20410;-82
2023/03/08 06:40:53;;;;;;;15.70;13.57;;;;;;;;;;5072167;28;20452;-81
2023/03/08 06:43:20;;;;;;;16.77;14.52;;;;;;;;;;5072161;28;20395;-82
2023/03/08 06:45:46;;;;;;;16.75;14.02;;;;;;;;;;5071967;28;20498;-80
2023/03/08 06:48:12;;;;;;;15.45;13.80;;;;;;;;;;5071976;28;21212;-82
2023/03/08 06:50:38;;;;;;;15.23;13.73;;;;;;;;;;5072821;28;20432;-82
2023/03/08 06:53:04;;;;;;;17.42;14.85;;;;;;;;;;5059228;28;20368;-83
2023/03/08 06:55:30;;;;;;;17.58;14.55;;;;;;;;;;5073106;28;20433;-84
2023/03/08 06:57:56;;;;;;;19.08;15.43;;;;;;;;;;5071783;28;20379;-81
2023/03/08 07:00:22;;;;;;;15.93;14.13;;;;;;;;;;5071602;28;20379;-79
2023/03/08 07:02:48;;;;;;;16.20;13.75;;;;;;;;;;5071504;28;20678;-80
2023/03/08 07:05:15;;;;;;;16.87;14.50;;;;;;;;;;5059952;28;20451;-80
2023/03/08 07:07:44;;;;;;;15.63;14.02;;;;;;;;;;5058565;28;20397;-78
2023/03/08 07:10:13;;;;;;;15.67;13.33;;;;;;;;;;5071612;28;20557;-79
2023/03/08 07:12:42;;;;;;;16.35;13.80;;;;;;;;;;5072528;28;20437;-78
2023/03/08 07:15:09;;;;;;;19.60;15.45;;;;;;;;;;5072536;28;20404;-80
2023/03/08 07:17:35;;;;;;;18.25;14.30;;;;;;;;;;5062374;28;20405;-81
2023/03/08 07:20:04;;;;;;;18.10;14.15;;;;;;;;;;5058118;28;20395;-81
2023/03/08 07:22:30;;;;;;;18.08;14.60;;;;;;;;;;5060059;28;20372;-82
2023/03/08 07:24:57;;;;;;;35.92;23.95;;;;;;;;;;5072306;28;20454;-81
2023/03/08 07:27:22;;;;;;;18.63;14.90;;;;;;;;;;5072263;28;20384;-81
2023/03/08 07:29:48;;;;;;;18.55;15.20;;;;;;;;;;5071951;28;20473;-81
2023/03/08 07:32:14;;;;;;;16.67;14.20;;;;;;;;;;5072130;28;20486;-81
2023/03/08 07:34:41;;;;;;;17.10;13.60;;;;;;;;;;5072093;28;20456;-81
2023/03/08 07:37:14;;;;;;;17.67;13.23;;;;;;;;;;5072149;28;20412;-81
2023/03/08 07:39:40;;;;;;;14.43;12.90;;;;;;;;;;5072088;28;20371;-82
2023/03/08 07:42:06;;;;;;;13.30;11.88;;;;;;;;;;5070637;28;21202;-83
2023/03/08 07:44:32;;;;;;;17.63;14.30;;;;;;;;;;5071989;28;20468;-82
2023/03/08 07:46:58;;;;;;;15.60;13.18;;;;;;;;;;5072056;28;20390;-83
2023/03/08 07:49:24;;;;;;;18.27;14.63;;;;;;;;;;5071759;28;20474;-82
2023/03/08 07:51:52;;;;;;;20.65;14.10;;;;;;;;;;5071628;28;20407;-82
2023/03/08 07:54:18;;;;;;;12.95;11.75;;;;;;;;;;5071743;28;20372;-82
2023/03/08 07:56:44;;;;;;;14.55;12.45;;;;;;;;;;5071969;28;20404;-82
2023/03/08 07:59:10;;;;;;;14.20;12.50;;;;;;;;;;5071632;28;20382;-82
2023/03/08 08:01:36;;;;;;;16.90;13.25;;;;;;;;;;5071194;28;20458;-82
2023/03/08 08:04:02;;;;;;;14.68;11.85;;;;;;;;;;5055311;28;20798;-82
2023/03/08 08:06:28;;;;;;;12.80;11.40;;;;;;;;;;5070844;28;20596;-82
2023/03/08 08:08:55;;;;;;;13.65;12.10;;;;;;;;;;5071609;28;20753;-82
2023/03/08 08:11:21;;;;;;;11.18;10.05;;;;;;;;;;5071271;28;20486;-82
2023/03/08 08:13:47;;;;;;;9.50;8.50;;;;;;;;;;5071521;28;20394;-83
2023/03/08 08:16:14;;;;;;;7.25;6.60;;;;;;;;;;5070106;28;20380;-82
2023/03/08 08:18:40;;;;;;;6.88;6.15;;;;;;;;;;5071264;28;20380;-82
2023/03/08 08:21:07;;;;;;;6.93;6.22;;;;;;;;;;5071338;28;20399;-82
2023/03/08 08:23:34;;;;;;;6.47;5.95;;;;;;;;;;5057581;28;20396;-82
2023/03/08 08:26:00;;;;;;;6.20;5.60;;;;;;;;;;5059796;28;20831;-83
2023/03/08 08:28:27;;;;;;;6.70;5.50;;;;;;;;;;5071269;28;20857;-81
2023/03/08 08:31:04;;;;;;;10.40;5.27;;;;;;;;;;5070926;28;20411;-83
2023/03/08 08:33:30;;;;;;;10.38;5.93;;;;;;;;;;5071095;28;20379;-83
2023/03/08 08:35:57;;;;;;;18.45;6.20;;;;;;;;;;5070264;28;20386;-83
2023/03/08 08:38:23;;;;;;;6.00;5.40;;;;;;;;;;5071228;28;20706;-83
2023/03/08 08:40:49;;;;;;;7.18;5.13;;;;;;;;;;5071071;28;20395;-82
2023/03/08 08:43:15;;;;;;;5.77;5.27;;;;;;;;;;5062245;28;20381;-83
2023/03/08 08:45:42;;;;;;;5.68;4.82;;;;;;;;;;5067629;28;20481;-83
2023/03/08 08:48:08;;;;;;;5.47;4.97;;;;;;;;;;5066973;28;20380;-82
2023/03/08 08:50:34;;;;;;;5.82;5.32;;;;;;;;;;5066019;28;20473;-82
2023/03/08 08:53:00;;;;;;;5.47;4.97;;;;;;;;;;5059092;28;20371;-82
2023/03/08 08:55:26;;;;;;;5.60;5.10;;;;;;;;;;5048752;28;20785;-83
2023/03/08 08:57:52;;;;;;;5.35;4.85;;;;;;;;;;5070804;28;20384;-85
2023/03/08 09:00:18;;;;;;;4.90;4.30;;;;;;;;;;5070887;28;20372;-82
2023/03/08 09:02:45;;;;;;;4.70;4.00;;;;;;;;;;5070920;28;20436;-85
2023/03/08 09:05:11;;;;;;;4.87;4.47;;;;;;;;;;5067061;28;20440;-82
2023/03/08 09:07:36;;;;;;;5.93;4.00;;;;;;;;;;5067139;28;20409;-82
2023/03/08 09:10:02;;;;;;;4.50;4.10;;;;;;;;;;5046266;28;20391;-82
2023/03/08 09:12:29;;;;;;;4.70;3.67;;;;;;;;;;5058356;28;20399;-82
2023/03/08 09:14:55;;;;;;;4.70;3.70;;;;;;;;;;5054927;28;20382;-82
2023/03/08 09:17:21;;;;;;;3.78;3.47;;;;;;;;;;5073423;28;20376;-82
2023/03/08 09:19:47;;;;;;;4.00;3.67;;;;;;;;;;5074294;28;20379;-82
2023/03/08 09:22:13;;;;;;;3.60;3.30;;;;;;;;;;5074477;28;20497;-82
2023/03/08 09:24:39;;;;;;;3.78;3.38;;;;;;;;;;5074480;28;20376;-81
2023/03/08 09:27:05;;;;;;;3.90;3.50;;;;;;;;;;5063411;28;20791;-83
2023/03/08 09:29:32;;;;;;;4.32;3.45;;;;;;;;;;5074183;28;20474;-83
2023/03/08 09:31:59;;;;;;;5.88;3.38;;;;;;;;;;5073884;28;20425;-83
2023/03/08 09:34:25;;;;;;;4.40;3.05;;;;;;;;;;5074048;28;20429;-83
2023/03/08 09:36:51;;;;;;;13.88;4.07;;;;;;;;;;5074077;28;20383;-82
2023/03/08 09:39:17;;;;;;;8.85;3.72;;;;;;;;;;5074170;28;20457;-82
2023/03/08 09:41:43;;;;;;;3.33;2.92;;;;;;;;;;5074256;28;20383;-83
2023/03/08 09:44:23;;;;;;;4.55;3.10;;;;;;;;;;5064638;28;20377;-82
2023/03/08 09:46:52;;;;;;;3.57;2.70;;;;;;;;;;5074643;28;20388;-80
2023/03/08 09:49:22;;;;;;;3.35;2.60;;;;;;;;;;5074062;28;20869;-80
2023/03/08 09:51:50;;;;;;;2.90;2.60;;;;;;;;;;5074025;28;20733;-80
2023/03/08 09:54:22;;;;;;;3.95;2.78;;;;;;;;;;5074952;28;20470;-82
2023/03/08 09:56:49;;;;;;;2.80;2.60;;;;;;;;;;5074251;28;20380;-83
2023/03/08 09:59:39;;;;;;;7.95;2.80;;;;;;;;;;5074265;28;20728;-80
2023/03/08 10:02:11;;;;;;;2.73;2.53;;;;;;;;;;5073849;28;20486;-81
2023/03/08 10:04:44;;;;;;;2.95;2.65;;;;;;;;;;5074111;28;20793;-81
2023/03/08 10:07:20;;;;;;;2.70;2.50;;;;;;;;;;5073939;28;20380;-80
2023/03/08 10:09:55;;;;;;;2.95;2.55;;;;;;;;;;5073762;28;20391;-80
2023/03/08 10:12:35;;;;;;;2.77;2.50;;;;;;;;;;5073892;28;20407;-81
2023/03/08 10:15:03;;;;;;;5.05;2.50;;;;;;;;;;5073667;28;20375;-80
2023/03/08 10:17:49;;;;;;;2.72;2.25;;;;;;;;;;5073662;28;20411;-82
2023/03/08 10:20:20;;;;;;;7.15;2.60;;;;;;;;;;5073462;28;20864;-83
2023/03/08 10:22:47;;;;;;;8.57;2.28;;;;;;;;;;5064246;28;20424;-83
2023/03/08 10:25:23;;;;;;;9.70;2.88;;;;;;;;;;5055031;28;20374;-81
2023/03/08 10:27:51;;;;;;;4.15;2.28;;;;;;;;;;5073532;28;20431;-81
2023/03/08 10:30:18;;;;;;;3.97;2.10;;;;;;;;;;5073022;28;20428;-81
2023/03/08 10:32:45;;;;;;;2.70;2.10;;;;;;;;;;5073471;28;20380;-81
2023/03/08 10:35:11;;;;;;;3.88;2.25;;;;;;;;;;5073200;28;20387;-81
2023/03/08 10:37:37;;;;;;;2.70;2.10;;;;;;;;;;5073262;28;20372;-81
2023/03/08 10:40:17;;;;;;;4.32;2.30;;;;;;;;;;5073109;28;20409;-81
2023/03/08 10:42:48;;;;;;;2.38;2.10;;;;;;;;;;5072188;28;20871;-81
2023/03/08 10:45:15;;;;;;;3.35;1.70;;;;;;;;;;5047594;28;20851;-81
2023/03/08 10:47:41;;;;;;;5.03;1.90;;;;;;;;;;5071935;28;20377;-81
2023/03/08 10:50:18;;;;;;;2.58;2.05;;;;;;;;;;5072882;28;20444;-81
2023/03/08 10:52:45;;;;;;;2.35;1.70;;;;;;;;;;5073002;28;20387;-81
2023/03/08 10:55:14;;;;;;;2.17;2.03;;;;;;;;;;5073013;28;20434;-81
2023/03/08 10:57:42;;;;;;;3.10;1.90;;;;;;;;;;5072894;28;20364;-81
2023/03/08 11:00:24;;;;;;;2.00;1.23;;;;;;;;;;5072767;28;20437;-81
2023/03/08 11:02:50;;;;;;;1.40;1.10;;;;;;;;;;5060918;28;20416;-81
2023/03/08 11:05:20;;;;;;;1.20;1.10;;;;;;;;;;5072492;28;20368;-81
2023/03/08 11:07:50;;;;;;;1.37;1.23;;;;;;;;;;5072805;28;20452;-82
2023/03/08 11:10:18;;;;;;;2.55;1.40;;;;;;;;;;5062459;28;20393;-81
2023/03/08 11:12:44;;;;;;;2.00;1.10;;;;;;;;;;5057000;28;20372;-81
2023/03/08 11:15:14;;;;;;;1.33;1.00;;;;;;;;;;5072460;28;20372;-81
2023/03/08 11:17:54;;;;;;;1.20;1.10;;;;;;;;;;5065883;28;20893;-81
2023/03/08 11:20:22;;;;;;;1.80;0.80;;;;;;;;;;5055996;28;20841;-81
2023/03/08 11:22:48;;;;;;;1.08;0.90;;;;;;;;;;5074113;28;20749;-80
2023/03/08 11:25:38;;;;;;;1.40;0.95;;;;;;;;;;5073817;28;20390;-82
2023/03/08 11:28:04;;;;;;;1.40;1.10;;;;;;;;;;5054614;28;20475;-81
2023/03/08 11:30:43;;;;;;;1.10;1.00;;;;;;;;;;5071732;28;20394;-81
2023/03/08 11:33:15;;;;;;;2.70;1.15;;;;;;;;;;5072189;28;20714;-81
2023/03/08 11:35:50;;;;;;;0.95;0.82;;;;;;;;;;5071270;28;20875;-82
2023/03/08 11:38:22;;;;;;;1.17;1.08;;;;;;;;;;5064326;28;20384;-82
2023/03/08 11:40:54;;;;;;;2.20;1.00;;;;;;;;;;5058475;28;20462;-82
2023/03/08 11:43:20;;;;;;;1.40;1.30;;;;;;;;;;5053940;28;20722;-82
2023/03/08 11:45:52;;;;;;;0.93;0.93;;;;;;;;;;5061665;28;20400;-83
2023/03/08 11:48:24;;;;;;;1.00;0.93;;;;;;;;;;5050519;28;20377;-82
2023/03/08 11:50:59;;;;;;;0.93;0.90;;;;;;;;;;5051886;28;20407;-82
2023/03/08 11:53:30;;;;;;;1.60;0.70;;;;;;;;;;5061619;28;20376;-82
2023/03/08 11:56:13;;;;;;;1.40;0.80;;;;;;;;;;5040809;28;20869;-82
2023/03/08 11:58:39;;;;;;;0.77;0.60;;;;;;;;;;5070319;28;20415;-82
2023/03/08 12:01:28;;;;;;;1.10;0.70;;;;;;;;;;5067035;28;20843;-84
2023/03/08 12:04:05;;;;;;;0.80;0.57;;;;;;;;;;5070358;28;20391;-84
2023/03/08 12:06:49;;;;;;;4.13;0.80;;;;;;;;;;5058740;28;20397;-83
2023/03/08 12:09:18;;;;;;;0.60;0.60;;;;;;;;;;5071883;28;20857;-83
2023/03/08 12:11:45;;;;;;;1.20;0.60;;;;;;;;;;5070077;28;20403;-82
2023/03/08 12:14:16;;;;;;;2.45;0.60;;;;;;;;;;5050795;28;20391;-82
2023/03/08 12:16:46;;;;;;;1.30;0.80;;;;;;;;;;5036113;28;20425;-81
2023/03/08 12:19:18;;;;;;;1.65;0.70;;;;;;;;;;5034717;28;20781;-82
2023/03/08 12:21:49;;;;;;;1.55;0.68;;;;;;;;;;5032531;28;20394;-81
2023/03/08 12:24:31;;;;;;;1.13;0.60;;;;;;;;;;5030772;28;20390;-82
2023/03/08 12:26:57;;;;;;;0.60;0.60;;;;;;;;;;5038470;28;20497;-81
2023/03/08 12:29:33;;;;;;;2.08;0.80;;;;;;;;;;5035121;28;20825;-82
2023/03/08 12:31:59;;;;;;;1.55;0.77;;;;;;;;;;5033933;28;21180;-81
2023/03/08 12:34:29;;;;;;;1.48;0.70;;;;;;;;;;5031537;28;20391;-81
2023/03/08 12:36:55;;;;;;;1.17;0.68;;;;;;;;;;5030778;28;20382;-82
2023/03/08 12:39:27;;;;;;;0.98;0.98;;;;;;;;;;5035185;28;20387;-81
2023/03/08 12:42:14;;;;;;;2.90;0.85;;;;;;;;;;5034526;28;20390;-81
2023/03/08 12:44:40;;;;;;;2.00;0.80;;;;;;;;;;5035457;28;20371;-81
2023/03/08 12:47:12;;;;;;;2.80;1.10;;;;;;;;;;5034201;28;20394;-81
2023/03/08 12:49:41;;;;;;;0.82;0.80;;;;;;;;;;5045768;28;20390;-81
2023/03/08 12:52:07;;;;;;;1.42;0.90;;;;;;;;;;5037657;28;20407;-81
2023/03/08 12:54:34;;;;;;;0.93;0.83;;;;;;;;;;5037506;28;20482;-82
2023/03/08 12:57:03;;;;;;;1.20;0.70;;;;;;;;;;5036091;28;20379;-81
2023/03/08 12:59:34;;;;;;;0.90;0.80;;;;;;;;;;5039416;28;20431;-82
2023/03/08 13:02:02;;;;;;;1.00;0.88;;;;;;;;;;5034312;28;20393;-82
2023/03/08 13:04:39;;;;;;;1.70;1.00;;;;;;;;;;5044224;28;20429;-81
2023/03/08 13:07:05;;;;;;;0.80;0.80;;;;;;;;;;5044993;28;20430;-82
2023/03/08 13:09:33;;;;;;;1.60;0.90;;;;;;;;;;5056885;28;20476;-81
2023/03/08 13:12:05;;;;;;;0.80;0.68;;;;;;;;;;5053508;28;20407;-82
2023/03/08 13:14:40;;;;;;;1.00;0.90;;;;;;;;;;5058036;28;20972;-80
2023/03/08 13:17:25;;;;;;;1.15;0.70;;;;;;;;;;5069227;28;20379;-80
2023/03/08 13:19:51;;;;;;;2.03;0.95;;;;;;;;;;5074435;28;20886;-81
2023/03/08 13:22:22;;;;;;;1.10;0.82;;;;;;;;;;5074750;28;20903;-80
2023/03/08 13:24:52;;;;;;;1.08;0.95;;;;;;;;;;5071947;28;20477;-80
2023/03/08 13:27:41;;;;;;;1.00;0.80;;;;;;;;;;5072376;28;20380;-80
2023/03/08 13:30:27;;;;;;;1.07;0.63;;;;;;;;;;5064229;28;20422;-80
2023/03/08 13:32:53;;;;;;;1.38;1.00;;;;;;;;;;5074384;28;20383;-81
2023/03/08 13:35:21;;;;;;;1.00;0.60;;;;;;;;;;5074660;28;20399;-81
2023/03/08 13:37:54;;;;;;;1.02;0.80;;;;;;;;;;5074418;28;20376;-81
2023/03/08 13:40:21;;;;;;;2.22;1.05;;;;;;;;;;5074146;28;20372;-81
2023/03/08 13:43:09;;;;;;;1.52;0.90;;;;;;;;;;5074343;28;20372;-81
2023/03/08 13:45:35;;;;;;;0.88;0.73;;;;;;;;;;5074240;28;20841;-81
2023/03/08 13:48:05;;;;;;;0.82;0.68;;;;;;;;;;5074241;28;20372;-81
2023/03/08 13:50:33;;;;;;;1.77;0.93;;;;;;;;;;5073839;28;20380;-81
2023/03/08 13:53:01;;;;;;;1.17;0.60;;;;;;;;;;5074319;28;20371;-81
2023/03/08 13:55:34;;;;;;;1.63;0.80;;;;;;;;;;5074076;28;20856;-81
2023/03/08 13:58:01;;;;;;;1.55;0.80;;;;;;;;;;5072589;28;20391;-82
2023/03/08 14:00:31;;;;;;;1.17;0.80;;;;;;;;;;5073363;28;20429;-84
2023/03/08 14:02:58;;;;;;;0.65;0.52;;;;;;;;;;5062190;28;20385;-81
2023/03/08 14:05:25;;;;;;;2.28;0.60;;;;;;;;;;5073940;28;20409;-82
2023/03/08 14:08:02;;;;;;;1.50;0.90;;;;;;;;;;5040692;28;20403;-83
2023/03/08 14:10:36;;;;;;;1.65;0.60;;;;;;;;;;5072370;28;20419;-81
2023/03/08 14:13:02;;;;;;;1.30;0.50;;;;;;;;;;5073703;28;20376;-82
2023/03/08 14:15:29;;;;;;;0.60;0.60;;;;;;;;;;5073668;28;20415;-82
2023/03/08 14:17:56;;;;;;;1.00;0.88;;;;;;;;;;5073699;28;20379;-81
2023/03/08 14:20:24;;;;;;;2.40;1.10;;;;;;;;;;5073474;28;20379;-80
2023/03/08 14:22:51;;;;;;;1.00;0.85;;;;;;;;;;5066118;28;20484;-80
2023/03/08 14:25:31;;;;;;;0.70;0.70;;;;;;;;;;5059087;28;20383;-80
2023/03/08 14:27:57;;;;;;;1.33;1.05;;;;;;;;;;5073444;28;20390;-81
2023/03/08 14:30:23;;;;;;;1.45;1.10;;;;;;;;;;5048529;28;20396;-81
2023/03/08 14:32:55;;;;;;;1.02;0.80;;;;;;;;;;5073346;28;20458;-81
2023/03/08 14:35:23;;;;;;;1.10;0.73;;;;;;;;;;5073291;28;20910;-80